No.10 Hasshomaru — JD2992 — position and weather

sailwx.info

Track history (hours):
 
Tides and Currents Weather Stations Pressure Air Temp Water Temp Dewpoint Dewpoint Depression Visibility Wind Speed Wind Dir Waves Ship Positions

No.10 Hasshomaru

Last reported at 2014-Dec-18 09:24 UTC. Time now 2014-Dec-20 05:11 UTC.
Position N 34°02' E 130°46'.

Length 105 m; draft 5.3 m.

Type: Tanker. MMSI: 431001112.

Date/timePositionNaut miles runAvg speedWind from/ knotsBaromVisibWave heightAir tempDewpointWater temp
2014-Dec-18 09:24N 34°02' E 130°46'2512.9
2014-Dec-18 07:29N 33°51' E 130°20'1112.3
2014-Dec-18 06:33N 33°40' E 130°17'6 5.9
2014-Dec-18 05:33N 33°36' E 130°23'0 0.0
2014-Dec-18 04:33N 33°36' E 130°23'0 0.0
2014-Dec-18 03:31N 33°36' E 130°23'0 0.0
2014-Dec-18 02:33N 33°36' E 130°23'0 0.0
2014-Dec-18 01:32N 33°36' E 130°23'1 0.9
2014-Dec-18 00:34N 33°37' E 130°23'7 6.4
2014-Dec-17 23:33N 33°40' E 130°16'0 0.1
2014-Dec-17 22:31N 33°40' E 130°16'1211.7
2014-Dec-17 21:32N 33°51' E 130°20'2511.7
2014-Dec-17 19:26N 34°03' E 130°46'97 2.5
2014-Dec-16 04:33N 33°57' E 132°43'  
Track history (hours):
 
Tides and Currents Weather Stations Pressure Air Temp Water Temp Dewpoint Dewpoint Depression Visibility Wind Speed Wind Dir Waves Ship Positions

No.10 Hasshomaru

Last reported at 2014-Dec-18 09:24 UTC. Time now 2014-Dec-20 05:11 UTC.
Position N 34°02' E 130°46'.

Length 105 m; draft 5.3 m.

Type: Tanker. MMSI: 431001112.

Date/timePositionNaut miles runAvg speedWind from/ knotsBaromVisibWave heightAir tempDewpointWater temp
2014-Dec-18 09:24N 34°02' E 130°46'2512.9
2014-Dec-18 07:29N 33°51' E 130°20'1112.3
2014-Dec-18 06:33N 33°40' E 130°17'6 5.9
2014-Dec-18 05:33N 33°36' E 130°23'0 0.0
2014-Dec-18 04:33N 33°36' E 130°23'0 0.0
2014-Dec-18 03:31N 33°36' E 130°23'0 0.0
2014-Dec-18 02:33N 33°36' E 130°23'0 0.0
2014-Dec-18 01:32N 33°36' E 130°23'1 0.9
2014-Dec-18 00:34N 33°37' E 130°23'7 6.4
2014-Dec-17 23:33N 33°40' E 130°16'0 0.1
2014-Dec-17 22:31N 33°40' E 130°16'1211.7
2014-Dec-17 21:32N 33°51' E 130°20'2511.7
2014-Dec-17 19:26N 34°03' E 130°46'97 2.5
2014-Dec-16 04:33N 33°57' E 132°43'  

Dump ship's entire track history